Richmond, Rhode Island
Current Conditions -  °F | °C
As of 4:53 AM on Saturday 20 Dec 2014 (Local Time) from KWST Reporting Station
Overcast Overcast  
Wind Chill: 22°   Ceiling: 3100
Heat Index: 27°   Visibility: 10mi
Dew Point: 21°   Wind: 5mph
Humidity: 78%   Direction: 340°NNW
Pressure: 30.2"   Gusts: NA
Location:  41.5104°N, 71.7381°W
Report Text: KWST 200953Z AUTO 34004KT 10SM OVC031 M03/M06 A3020 RMK AO2 SLP226 T10281061
Loading
Personal Weather Stations






























Interactive Weather Map New forecast layout! Learn more

10-Day Weather Forecast

Advertisements
Track Severe Weather on mobile